Time;durP1;ratioP1;P1;durP2;ratioP2;P2;SDS_P1;SDS_P2;PMS_P1;PMS_P2;Temp;Humidity;BMP_temperature;BMP_pressure;BME280_temperature;BME280_humidity;BME280_pressure;Samples;Min_cycle;Max_cycle;Signal;HPM_P1;HPM_P2
2024/01/16 00:03:26;;;;;;;6.8;3.4;;;;;;;-0.37;85.38;96968.333333333;;;;
2024/01/16 00:14:26;;;;;;;6.8;3.4;;;;;;;-0.24;82.88;96981.666666667;;;;
2024/01/16 00:25:26;;;;;;;6.9;3.5;;;;;;;-0.26;83;96991.666666667;;;;
2024/01/16 00:36:25;;;;;;;6.9;3.5;;;;;;;-0.25;83.86;97011.666666667;;;;
2024/01/16 00:46:25;;;;;;;6.9;3.5;;;;;;;-0.35;84.37;97011.666666667;;;;
2024/01/16 00:56:27;;;;;;;8.4;4.1;;;;;;;-0.35;85.45;97025;;;;
2024/01/16 01:06:25;;;;;;;8.4;4.1;;;;;;;-0.38;83.83;97036.666666667;;;;
2024/01/16 01:17:25;;;;;;;8.4;4.1;;;;;;;-0.35;83.07;97045;;;;
2024/01/16 01:27:26;;;;;;;9.4;4.3;;;;;;;-0.33;83;97056.666666667;;;;
2024/01/16 01:37:26;;;;;;;9.4;4.3;;;;;;;-0.34;83.46;97060;;;;
2024/01/16 01:48:26;;;;;;;9.4;4.3;;;;;;;-0.34;84.12;97065;;;;
2024/01/16 01:59:26;;;;;;;9.3;4.8;;;;;;;-0.33;84.29;97070;;;;
2024/01/16 02:10:26;;;;;;;9.3;4.8;;;;;;;-0.51;83.81;97068.333333333;;;;
2024/01/16 02:20:26;;;;;;;9.3;4.8;;;;;;;-0.61;82.81;97076.666666667;;;;
2024/01/16 02:30:26;;;;;;;7.5;3.8;;;;;;;-0.77;83.4;97078.333333333;;;;
2024/01/16 02:41:26;;;;;;;7.5;3.8;;;;;;;-0.69;82.13;97088.333333333;;;;
2024/01/16 02:52:26;;;;;;;6.9;3.8;;;;;;;-0.52;80.64;97086.666666667;;;;
2024/01/16 03:03:26;;;;;;;6.9;3.8;;;;;;;-0.46;78.91;97095;;;;
2024/01/16 03:14:26;;;;;;;6.9;3.8;;;;;;;-0.28;78.12;97100;;;;
2024/01/16 03:24:26;;;;;;;4.5;2.8;;;;;;;-0.15;77.05;97105;;;;
2024/01/16 03:35:26;;;;;;;4.5;2.8;;;;;;;0.02;76.38;97113.333333333;;;;
2024/01/16 03:46:26;;;;;;;4.5;2.8;;;;;;;0.05;76.37;97120;;;;
2024/01/16 03:57:26;;;;;;;5.3;2.5;;;;;;;0.18;76.31;97121.666666667;;;;
2024/01/16 04:07:26;;;;;;;5.3;2.5;;;;;;;0.25;76.42;97131.666666667;;;;
2024/01/16 04:17:26;;;;;;;5.3;2.5;;;;;;;0.21;78.16;97131.666666667;;;;
2024/01/16 04:27:26;;;;;;;4;2.1;;;;;;;0.04;81.33;97143.333333333;;;;
2024/01/16 04:38:26;;;;;;;4;2.1;;;;;;;0.06;80.91;97160;;;;
2024/01/16 04:48:26;;;;;;;4;2.1;;;;;;;0.1;80.13;97176.666666667;;;;
2024/01/16 04:58:26;;;;;;;5.2;2.7;;;;;;;0.23;78.73;97196.666666667;;;;
2024/01/16 05:08:26;;;;;;;5.2;2.7;;;;;;;0.25;78.02;97205;;;;
2024/01/16 05:19:26;;;;;;;5.2;2.7;;;;;;;0.24;78.91;97231.666666667;;;;
2024/01/16 05:29:26;;;;;;;7.3;3.7;;;;;;;0.24;78.79;97250;;;;
2024/01/16 05:40:26;;;;;;;7.3;3.7;;;;;;;0.22;78.32;97268.333333333;;;;
2024/01/16 05:50:26;;;;;;;7.3;3.7;;;;;;;0.3;77.73;97281.666666667;;;;
2024/01/16 06:00:26;;;;;;;8.4;3.3;;;;;;;0.26;77.7;97301.666666667;;;;
2024/01/16 06:11:26;;;;;;;8.4;3.3;;;;;;;0.16;79.14;97316.666666667;;;;
2024/01/16 06:21:26;;;;;;;6;3.2;;;;;;;0.06;81.5;97338.333333333;;;;
2024/01/16 06:31:26;;;;;;;6;3.2;;;;;;;-0.49;89.58;97348.333333333;;;;
2024/01/16 06:41:26;;;;;;;6;3.2;;;;;;;-0.46;89.69;97355;;;;
2024/01/16 06:52:26;;;;;;;10.6;5.5;;;;;;;-0.5;89.8;97378.333333333;;;;
2024/01/16 07:03:26;;;;;;;10.6;5.5;;;;;;;-0.45;89.93;97395;;;;
2024/01/16 07:14:26;;;;;;;10.6;5.5;;;;;;;-0.39;89.68;97411.666666667;;;;
2024/01/16 07:25:26;;;;;;;8.5;5.2;;;;;;;-0.23;88.92;97420;;;;
2024/01/16 07:36:26;;;;;;;8.5;5.2;;;;;;;0.08;88.46;97441.666666667;;;;
2024/01/16 07:46:26;;;;;;;8.5;5.2;;;;;;;0.01;87.32;97450;;;;
2024/01/16 07:56:26;;;;;;;8.6;4.4;;;;;;;0.38;85.78;97460;;;;
2024/01/16 08:06:26;;;;;;;8.6;4.4;;;;;;;0.3;84.28;97473.333333333;;;;
2024/01/16 08:16:26;;;;;;;8.6;4.4;;;;;;;-0.02;83.97;97500;;;;
2024/01/16 08:27:26;;;;;;;7.5;4.1;;;;;;;0.44;82.82;97510;;;;
2024/01/16 08:37:26;;;;;;;7.5;4.1;;;;;;;0.31;80.74;97530;;;;
2024/01/16 08:48:26;;;;;;;7.5;4.1;;;;;;;0.71;77.6;97538.333333333;;;;
2024/01/16 08:58:26;;;;;;;8;3.9;;;;;;;1.24;76.55;97548.333333333;;;;
2024/01/16 09:09:26;;;;;;;8;3.9;;;;;;;1.45;73.46;97560;;;;
2024/01/16 09:19:26;;;;;;;8;3.9;;;;;;;1.54;71.55;97573.333333333;;;;
2024/01/16 09:30:26;;;;;;;8.2;4.2;;;;;;;1.95;71.39;97580;;;;
2024/01/16 09:40:26;;;;;;;8.2;4.2;;;;;;;2.17;69.35;97582;;;;
2024/01/16 09:51:26;;;;;;;5.4;2.7;;;;;;;2.21;69.91;97578;;;;
2024/01/16 10:02:26;;;;;;;5.4;2.7;;;;;;;1.93;71.86;97586;;;;
2024/01/16 10:13:26;;;;;;;5.4;2.7;;;;;;;1.32;73.73;97595;;;;
2024/01/16 10:23:26;;;;;;;5.8;2.6;;;;;;;1.54;71.81;97600;;;;
2024/01/16 10:33:26;;;;;;;5.8;2.6;;;;;;;1.83;71.75;97610;;;;
2024/01/16 10:44:27;;;;;;;5.8;2.6;;;;;;;2.08;71;97623.333333333;;;;
2024/01/16 10:54:26;;;;;;;6.1;3;;;;;;;2.18;69.67;97615;;;;
2024/01/16 11:05:26;;;;;;;6.1;3;;;;;;;1.9;68.2;97610;;;;
2024/01/16 11:16:26;;;;;;;6.1;3;;;;;;;1.96;66.31;97611.666666667;;;;
2024/01/16 11:26:26;;;;;;;5.9;2.8;;;;;;;2.34;64.19;97621.666666667;;;;
2024/01/16 11:36:26;;;;;;;5.9;2.8;;;;;;;2.65;62.65;97626.666666667;;;;
2024/01/16 11:47:26;;;;;;;5.9;2.8;;;;;;;2.65;61.36;97626.666666667;;;;
2024/01/16 11:57:26;;;;;;;5.4;2.7;;;;;;;2.94;61.5;97631.666666667;;;;
2024/01/16 12:07:26;;;;;;;5.4;2.7;;;;;;;2.72;61.35;97641.666666667;;;;
2024/01/16 12:18:26;;;;;;;5.4;2.7;;;;;;;2.47;63.6;97645;;;;
2024/01/16 12:28:26;;;;;;;6.4;3.5;;;;;;;1.07;77.34;97680;;;;
2024/01/16 12:39:28;;;;;;;6.4;3.5;;;;;;;-0.06;87.93;97690;;;;
2024/01/16 12:49:26;;;;;;;6.4;3.5;;;;;;;0.03;88.18;97698.333333333;;;;
2024/01/16 13:00:28;;;;;;;6.4;3.4;;;;;;;0.07;87.44;97716.666666667;;;;
2024/01/16 13:10:26;;;;;;;6.4;3.4;;;;;;;0.09;86.7;97716.666666667;;;;
2024/01/16 13:21:26;;;;;;;7.8;4.2;;;;;;;-0.09;85.6;97731.666666667;;;;
2024/01/16 13:31:26;;;;;;;7.8;4.2;;;;;;;-0.1;85.38;97743.333333333;;;;
2024/01/16 13:42:26;;;;;;;7.8;4.2;;;;;;;-0.33;85.5;97751.666666667;;;;
2024/01/16 13:53:27;;;;;;;7.1;4.4;;;;;;;-0.24;84.74;97771.666666667;;;;
2024/01/16 14:04:26;;;;;;;7.1;4.4;;;;;;;-0.34;83.79;97790;;;;
2024/01/16 14:14:26;;;;;;;7.1;4.4;;;;;;;-0.29;83.1;97798.333333333;;;;
2024/01/16 14:24:26;;;;;;;9.2;4.8;;;;;;;-0.34;81.95;97805;;;;
2024/01/16 14:34:27;;;;;;;9.2;4.8;;;;;;;-0.38;82.09;97820;;;;
2024/01/16 14:45:27;;;;;;;9.2;4.8;;;;;;;-0.45;81.4;97821.666666667;;;;
2024/01/16 14:55:26;;;;;;;7.5;3.6;;;;;;;-0.29;81.19;97826.666666667;;;;
2024/01/16 15:06:26;;;;;;;7.5;3.6;;;;;;;-0.27;81.46;97858.333333333;;;;
2024/01/16 15:17:27;;;;;;;7.5;3.6;;;;;;;-0.59;86.14;97860;;;;
2024/01/16 15:28:26;;;;;;;10.5;5.8;;;;;;;-0.67;86.9;97873.333333333;;;;
2024/01/16 15:39:26;;;;;;;10.5;5.8;;;;;;;-0.62;86.83;97890;;;;
2024/01/16 15:49:26;;;;;;;10.5;5.8;;;;;;;-0.66;87.48;97910;;;;
2024/01/16 16:00:26;;;;;;;12.4;7.6;;;;;;;-0.69;88.58;97928.333333333;;;;
2024/01/16 16:10:26;;;;;;;12.4;7.6;;;;;;;-0.7;89.64;97945;;;;
2024/01/16 16:20:26;;;;;;;9.2;6;;;;;;;-0.81;88.94;97958.333333333;;;;
2024/01/16 16:30:26;;;;;;;9.2;6;;;;;;;-0.96;87.59;97966.666666667;;;;
2024/01/16 16:41:26;;;;;;;9.2;6;;;;;;;-1.14;86.54;97971.666666667;;;;
2024/01/16 16:52:26;;;;;;;9.2;4.2;;;;;;;-1.13;85.97;97988.333333333;;;;
2024/01/16 17:03:26;;;;;;;9.2;4.2;;;;;;;-1.09;85.06;97991.666666667;;;;
2024/01/16 17:13:26;;;;;;;9.2;4.2;;;;;;;-1.07;84.84;97990;;;;
2024/01/16 17:23:26;;;;;;;7.6;4;;;;;;;-1.13;84.71;98000;;;;
2024/01/16 17:34:26;;;;;;;7.6;4;;;;;;;-1.19;84.07;98006.666666667;;;;
2024/01/16 17:45:26;;;;;;;7.6;4;;;;;;;-1.21;83.41;98020;;;;
2024/01/16 17:55:29;;;;;;;10.5;4.9;;;;;;;-1.57;84.28;98020;;;;
2024/01/16 18:06:26;;;;;;;10.5;4.9;;;;;;;-1.71;84.71;98028.333333333;;;;
2024/01/16 18:17:27;;;;;;;10.5;4.9;;;;;;;-1.86;84.36;98040;;;;
2024/01/16 18:28:26;;;;;;;11.4;7.1;;;;;;;-1.91;85.44;98048.333333333;;;;
2024/01/16 18:38:27;;;;;;;11.4;7.1;;;;;;;-1.84;85.79;98048.333333333;;;;
2024/01/16 18:48:28;;;;;;;11.4;7.1;;;;;;;-1.84;85.5;98043.333333333;;;;
2024/01/16 18:59:28;;;;;;;13.5;7.1;;;;;;;-1.87;85.53;98055;;;;
2024/01/16 19:10:28;;;;;;;13.5;7.1;;;;;;;-1.72;84.93;98071.666666667;;;;
2024/01/16 19:21:26;;;;;;;14;7.4;;;;;;;-1.8;84.49;98076.666666667;;;;
2024/01/16 19:31:29;;;;;;;14;7.4;;;;;;;-2.06;84.1;98071.666666667;;;;
2024/01/16 19:42:28;;;;;;;14;7.4;;;;;;;-2.45;83.95;98083.333333333;;;;
2024/01/16 19:53:26;;;;;;;13.7;8.5;;;;;;;-2.65;84.97;98083.333333333;;;;
2024/01/16 20:04:27;;;;;;;13.7;8.5;;;;;;;-2.67;85.3;98086.666666667;;;;
2024/01/16 20:15:26;;;;;;;13.7;8.5;;;;;;;-2.61;85.35;98081.666666667;;;;
2024/01/16 20:25:29;;;;;;;17.9;9.7;;;;;;;-2.6;84.75;98075;;;;
2024/01/16 20:36:26;;;;;;;17.9;9.7;;;;;;;-2.62;84.36;98078.333333333;;;;
2024/01/16 20:46:28;;;;;;;17.9;9.7;;;;;;;-2.58;84.29;98081.666666667;;;;
2024/01/16 20:57:26;;;;;;;16.1;8.3;;;;;;;-2.62;83.76;98085;;;;
2024/01/16 21:07:26;;;;;;;16.1;8.3;;;;;;;-2.61;84.62;98070;;;;
2024/01/16 21:17:26;;;;;;;16.1;8.3;;;;;;;-2.55;84.58;98075;;;;
2024/01/16 21:28:26;;;;;;;19.7;9.9;;;;;;;-2.39;83.96;98068.333333333;;;;
2024/01/16 21:39:28;;;;;;;19.7;9.9;;;;;;;-2.4;83.51;98078.333333333;;;;
2024/01/16 21:49:26;;;;;;;14.9;7.7;;;;;;;-2.39;82.96;98071.666666667;;;;
2024/01/16 21:59:26;;;;;;;14.9;7.7;;;;;;;-2.41;81.8;98068.333333333;;;;
2024/01/16 22:09:29;;;;;;;14.9;7.7;;;;;;;-2.39;80.93;98063.333333333;;;;
2024/01/16 22:19:26;;;;;;;16.7;8.9;;;;;;;-2.36;80.72;98058.333333333;;;;
2024/01/16 22:30:26;;;;;;;16.7;8.9;;;;;;;-2.48;80.42;98063.333333333;;;;
2024/01/16 22:41:27;;;;;;;16.7;8.9;;;;;;;-2.43;80.62;98048.333333333;;;;
2024/01/16 22:52:26;;;;;;;18.7;9.4;;;;;;;-2.64;79.74;98040;;;;
2024/01/16 23:02:28;;;;;;;18.7;9.4;;;;;;;-2.69;79.45;98045;;;;
2024/01/16 23:13:26;;;;;;;18.7;9.4;;;;;;;-2.85;79.71;98030;;;;
2024/01/16 23:23:26;;;;;;;15.2;7.2;;;;;;;-3.02;79.13;98021.666666667;;;;
2024/01/16 23:33:27;;;;;;;15.2;7.2;;;;;;;-3.06;79.32;98021.666666667;;;;
2024/01/16 23:44:27;;;;;;;15.2;7.2;;;;;;;-3.23;79.3;98020;;;;
2024/01/16 23:55:27;;;;;;;12;5.7;;;;;;;-3.3;78.96;98018.333333333;;;;
